sensor_id;sensor_type;location;lat;lon;timestamp;P1;durP1;ratioP1;P2;durP2;ratioP2
38591;SDS011;24356;48.460;11.450;2022-09-01T00:01:52;13.68;;;10.82;;
38591;SDS011;24356;48.460;11.450;2022-09-01T00:04:19;17.08;;;11.52;;
38591;SDS011;24356;48.460;11.450;2022-09-01T00:06:47;11.35;;;8.60;;
38591;SDS011;24356;48.460;11.450;2022-09-01T00:09:14;12.25;;;9.55;;
38591;SDS011;24356;48.460;11.450;2022-09-01T00:11:42;20.52;;;14.38;;
38591;SDS011;24356;48.460;11.450;2022-09-01T00:14:12;16.30;;;10.18;;
38591;SDS011;24356;48.460;11.450;2022-09-01T00:16:38;17.20;;;12.43;;
38591;SDS011;24356;48.460;11.450;2022-09-01T00:19:04;14.65;;;9.73;;
38591;SDS011;24356;48.460;11.450;2022-09-01T00:21:32;14.88;;;11.05;;
38591;SDS011;24356;48.460;11.450;2022-09-01T00:24:00;14.27;;;10.82;;
38591;SDS011;24356;48.460;11.450;2022-09-01T00:26:26;10.73;;;8.23;;
38591;SDS011;24356;48.460;11.450;2022-09-01T00:28:52;16.08;;;11.43;;
38591;SDS011;24356;48.460;11.450;2022-09-01T00:31:18;14.32;;;11.20;;
38591;SDS011;24356;48.460;11.450;2022-09-01T00:33:45;10.88;;;8.00;;
38591;SDS011;24356;48.460;11.450;2022-09-01T00:36:12;12.82;;;10.35;;
38591;SDS011;24356;48.460;11.450;2022-09-01T00:38:38;14.57;;;10.88;;
38591;SDS011;24356;48.460;11.450;2022-09-01T00:41:04;18.40;;;13.27;;
38591;SDS011;24356;48.460;11.450;2022-09-01T00:46:07;21.98;;;14.60;;
38591;SDS011;24356;48.460;11.450;2022-09-01T00:48:35;17.60;;;11.27;;
38591;SDS011;24356;48.460;11.450;2022-09-01T00:51:02;13.27;;;9.38;;
38591;SDS011;24356;48.460;11.450;2022-09-01T00:53:29;21.63;;;15.60;;
38591;SDS011;24356;48.460;11.450;2022-09-01T00:55:55;14.90;;;10.68;;
38591;SDS011;24356;48.460;11.450;2022-09-01T00:58:21;12.50;;;9.75;;
38591;SDS011;24356;48.460;11.450;2022-09-01T01:00:47;20.88;;;14.55;;
38591;SDS011;24356;48.460;11.450;2022-09-01T01:03:15;9.63;;;7.32;;
38591;SDS011;24356;48.460;11.450;2022-09-01T01:05:52;15.30;;;9.90;;
38591;SDS011;24356;48.460;11.450;2022-09-01T01:08:23;19.10;;;12.32;;
38591;SDS011;24356;48.460;11.450;2022-09-01T01:10:57;14.50;;;10.10;;
38591;SDS011;24356;48.460;11.450;2022-09-01T01:13:31;13.35;;;8.82;;
38591;SDS011;24356;48.460;11.450;2022-09-01T01:16:12;19.58;;;13.70;;
38591;SDS011;24356;48.460;11.450;2022-09-01T01:18:39;20.38;;;14.30;;
38591;SDS011;24356;48.460;11.450;2022-09-01T01:21:06;20.10;;;14.50;;
38591;SDS011;24356;48.460;11.450;2022-09-01T01:24:01;14.48;;;11.05;;
38591;SDS011;24356;48.460;11.450;2022-09-01T01:26:42;17.80;;;12.55;;
38591;SDS011;24356;48.460;11.450;2022-09-01T01:29:08;18.38;;;13.75;;
38591;SDS011;24356;48.460;11.450;2022-09-01T01:31:34;16.25;;;10.35;;
38591;SDS011;24356;48.460;11.450;2022-09-01T01:33:59;14.15;;;10.43;;
38591;SDS011;24356;48.460;11.450;2022-09-01T01:36:27;16.98;;;12.43;;
38591;SDS011;24356;48.460;11.450;2022-09-01T01:41:31;20.95;;;13.25;;
38591;SDS011;24356;48.460;11.450;2022-09-01T01:43:58;14.13;;;10.30;;
38591;SDS011;24356;48.460;11.450;2022-09-01T01:46:27;13.30;;;9.10;;
38591;SDS011;24356;48.460;11.450;2022-09-01T01:48:53;23.55;;;15.90;;
38591;SDS011;24356;48.460;11.450;2022-09-01T01:51:19;19.52;;;10.90;;
38591;SDS011;24356;48.460;11.450;2022-09-01T01:53:50;17.98;;;10.40;;
38591;SDS011;24356;48.460;11.450;2022-09-01T01:56:18;21.52;;;15.50;;
38591;SDS011;24356;48.460;11.450;2022-09-01T01:58:44;18.08;;;10.77;;
38591;SDS011;24356;48.460;11.450;2022-09-01T02:01:10;13.73;;;9.65;;
38591;SDS011;24356;48.460;11.450;2022-09-01T02:03:37;15.80;;;12.32;;
38591;SDS011;24356;48.460;11.450;2022-09-01T02:06:04;20.83;;;14.93;;
38591;SDS011;24356;48.460;11.450;2022-09-01T02:08:33;19.08;;;14.18;;
38591;SDS011;24356;48.460;11.450;2022-09-01T02:11:01;18.38;;;13.88;;
38591;SDS011;24356;48.460;11.450;2022-09-01T02:13:29;16.75;;;11.07;;
38591;SDS011;24356;48.460;11.450;2022-09-01T02:15:55;14.00;;;10.75;;
38591;SDS011;24356;48.460;11.450;2022-09-01T02:23:28;15.93;;;11.60;;
38591;SDS011;24356;48.460;11.450;2022-09-01T02:25:56;19.17;;;13.40;;
38591;SDS011;24356;48.460;11.450;2022-09-01T02:28:26;17.98;;;13.23;;
38591;SDS011;24356;48.460;11.450;2022-09-01T02:30:55;14.70;;;10.48;;
38591;SDS011;24356;48.460;11.450;2022-09-01T02:33:24;14.02;;;9.70;;
38591;SDS011;24356;48.460;11.450;2022-09-01T02:35:54;23.65;;;16.50;;
38591;SDS011;24356;48.460;11.450;2022-09-01T02:38:22;16.73;;;9.75;;
38591;SDS011;24356;48.460;11.450;2022-09-01T02:40:50;14.35;;;11.13;;
38591;SDS011;24356;48.460;11.450;2022-09-01T02:43:16;19.83;;;13.68;;
38591;SDS011;24356;48.460;11.450;2022-09-01T02:45:45;13.98;;;10.27;;
38591;SDS011;24356;48.460;11.450;2022-09-01T02:48:12;20.10;;;15.32;;
38591;SDS011;24356;48.460;11.450;2022-09-01T02:50:38;14.80;;;10.02;;
38591;SDS011;24356;48.460;11.450;2022-09-01T02:53:06;20.52;;;15.02;;
38591;SDS011;24356;48.460;11.450;2022-09-01T02:55:37;19.13;;;13.93;;
38591;SDS011;24356;48.460;11.450;2022-09-01T02:58:04;17.65;;;12.77;;
38591;SDS011;24356;48.460;11.450;2022-09-01T03:00:32;23.92;;;15.75;;
38591;SDS011;24356;48.460;11.450;2022-09-01T03:03:00;14.10;;;11.13;;
38591;SDS011;24356;48.460;11.450;2022-09-01T03:05:28;23.65;;;16.35;;
38591;SDS011;24356;48.460;11.450;2022-09-01T03:07:56;24.90;;;17.75;;
38591;SDS011;24356;48.460;11.450;2022-09-01T03:10:27;23.52;;;16.05;;
38591;SDS011;24356;48.460;11.450;2022-09-01T03:12:59;23.95;;;15.18;;
38591;SDS011;24356;48.460;11.450;2022-09-01T03:15:32;20.27;;;15.15;;
38591;SDS011;24356;48.460;11.450;2022-09-01T03:17:59;20.30;;;14.50;;
38591;SDS011;24356;48.460;11.450;2022-09-01T03:20:25;17.65;;;11.25;;
38591;SDS011;24356;48.460;11.450;2022-09-01T03:22:53;22.13;;;16.13;;
38591;SDS011;24356;48.460;11.450;2022-09-01T03:25:20;17.27;;;11.98;;
38591;SDS011;24356;48.460;11.450;2022-09-01T03:27:47;15.45;;;11.73;;
38591;SDS011;24356;48.460;11.450;2022-09-01T03:30:13;17.42;;;12.70;;
38591;SDS011;24356;48.460;11.450;2022-09-01T03:32:39;26.63;;;17.20;;
38591;SDS011;24356;48.460;11.450;2022-09-01T03:35:05;15.15;;;10.60;;
38591;SDS011;24356;48.460;11.450;2022-09-01T03:37:30;17.95;;;13.45;;
38591;SDS011;24356;48.460;11.450;2022-09-01T03:39:57;11.88;;;9.43;;
38591;SDS011;24356;48.460;11.450;2022-09-01T03:42:23;21.98;;;15.48;;
38591;SDS011;24356;48.460;11.450;2022-09-01T03:44:53;14.25;;;10.52;;
38591;SDS011;24356;48.460;11.450;2022-09-01T03:47:20;21.92;;;16.45;;
38591;SDS011;24356;48.460;11.450;2022-09-01T03:49:46;20.10;;;14.07;;
38591;SDS011;24356;48.460;11.450;2022-09-01T03:52:14;21.92;;;16.75;;
38591;SDS011;24356;48.460;11.450;2022-09-01T03:54:43;16.65;;;12.30;;
38591;SDS011;24356;48.460;11.450;2022-09-01T03:57:10;15.95;;;12.25;;
38591;SDS011;24356;48.460;11.450;2022-09-01T03:59:36;18.60;;;14.35;;
38591;SDS011;24356;48.460;11.450;2022-09-01T04:02:07;19.05;;;12.48;;
38591;SDS011;24356;48.460;11.450;2022-09-01T04:04:32;17.15;;;12.05;;
38591;SDS011;24356;48.460;11.450;2022-09-01T04:06:58;18.45;;;13.35;;
38591;SDS011;24356;48.460;11.450;2022-09-01T04:09:24;18.75;;;14.50;;
38591;SDS011;24356;48.460;11.450;2022-09-01T04:11:50;23.02;;;16.65;;
38591;SDS011;24356;48.460;11.450;2022-09-01T04:14:18;22.45;;;16.50;;
38591;SDS011;24356;48.460;11.450;2022-09-01T04:16:44;19.05;;;14.88;;
38591;SDS011;24356;48.460;11.450;2022-09-01T04:19:31;14.65;;;10.45;;
38591;SDS011;24356;48.460;11.450;2022-09-01T04:22:00;15.80;;;12.10;;
38591;SDS011;24356;48.460;11.450;2022-09-01T04:24:27;20.75;;;13.43;;
38591;SDS011;24356;48.460;11.450;2022-09-01T04:26:56;21.70;;;16.33;;
38591;SDS011;24356;48.460;11.450;2022-09-01T04:29:25;13.25;;;9.82;;
38591;SDS011;24356;48.460;11.450;2022-09-01T04:31:52;21.05;;;15.35;;
38591;SDS011;24356;48.460;11.450;2022-09-01T04:34:26;20.00;;;14.52;;
38591;SDS011;24356;48.460;11.450;2022-09-01T04:36:54;20.70;;;15.27;;
38591;SDS011;24356;48.460;11.450;2022-09-01T04:39:21;22.10;;;15.93;;
38591;SDS011;24356;48.460;11.450;2022-09-01T04:41:47;20.90;;;14.73;;
38591;SDS011;24356;48.460;11.450;2022-09-01T04:44:14;12.43;;;9.15;;
38591;SDS011;24356;48.460;11.450;2022-09-01T04:46:43;17.92;;;13.38;;
38591;SDS011;24356;48.460;11.450;2022-09-01T04:49:12;19.33;;;12.73;;
38591;SDS011;24356;48.460;11.450;2022-09-01T04:51:44;26.77;;;18.10;;
38591;SDS011;24356;48.460;11.450;2022-09-01T04:54:11;22.48;;;16.52;;
38591;SDS011;24356;48.460;11.450;2022-09-01T04:56:44;20.90;;;15.45;;
38591;SDS011;24356;48.460;11.450;2022-09-01T04:59:12;18.35;;;12.38;;
38591;SDS011;24356;48.460;11.450;2022-09-01T05:01:38;24.25;;;17.27;;
38591;SDS011;24356;48.460;11.450;2022-09-01T05:04:09;16.48;;;12.40;;
38591;SDS011;24356;48.460;11.450;2022-09-01T05:06:42;17.23;;;11.63;;
38591;SDS011;24356;48.460;11.450;2022-09-01T05:09:09;28.15;;;18.25;;
38591;SDS011;24356;48.460;11.450;2022-09-01T05:11:37;26.25;;;16.17;;
38591;SDS011;24356;48.460;11.450;2022-09-01T05:14:05;27.13;;;16.75;;
38591;SDS011;24356;48.460;11.450;2022-09-01T05:16:31;20.55;;;14.52;;
38591;SDS011;24356;48.460;11.450;2022-09-01T05:18:59;26.10;;;18.08;;
38591;SDS011;24356;48.460;11.450;2022-09-01T05:21:26;17.67;;;12.93;;
38591;SDS011;24356;48.460;11.450;2022-09-01T05:23:53;15.73;;;12.60;;
38591;SDS011;24356;48.460;11.450;2022-09-01T05:26:21;26.40;;;18.88;;
38591;SDS011;24356;48.460;11.450;2022-09-01T05:28:51;19.95;;;14.48;;
38591;SDS011;24356;48.460;11.450;2022-09-01T05:31:18;21.73;;;14.95;;
38591;SDS011;24356;48.460;11.450;2022-09-01T05:33:46;20.98;;;13.70;;
38591;SDS011;24356;48.460;11.450;2022-09-01T05:36:14;16.33;;;11.75;;
38591;SDS011;24356;48.460;11.450;2022-09-01T05:38:42;17.73;;;12.38;;
38591;SDS011;24356;48.460;11.450;2022-09-01T05:41:09;23.30;;;16.45;;
38591;SDS011;24356;48.460;11.450;2022-09-01T05:43:38;30.67;;;16.58;;
38591;SDS011;24356;48.460;11.450;2022-09-01T05:46:10;17.45;;;12.68;;
38591;SDS011;24356;48.460;11.450;2022-09-01T05:48:39;11.38;;;8.55;;
38591;SDS011;24356;48.460;11.450;2022-09-01T05:51:06;17.50;;;12.18;;
38591;SDS011;24356;48.460;11.450;2022-09-01T05:53:33;12.20;;;8.10;;
38591;SDS011;24356;48.460;11.450;2022-09-01T05:56:00;19.98;;;13.82;;
38591;SDS011;24356;48.460;11.450;2022-09-01T05:58:32;18.35;;;13.23;;
38591;SDS011;24356;48.460;11.450;2022-09-01T06:00:58;19.73;;;14.27;;
38591;SDS011;24356;48.460;11.450;2022-09-01T06:03:26;15.45;;;11.85;;
38591;SDS011;24356;48.460;11.450;2022-09-01T06:05:53;18.65;;;13.90;;
38591;SDS011;24356;48.460;11.450;2022-09-01T06:08:23;23.65;;;15.07;;
38591;SDS011;24356;48.460;11.450;2022-09-01T06:10:52;25.57;;;17.27;;
38591;SDS011;24356;48.460;11.450;2022-09-01T06:13:18;19.58;;;14.48;;
38591;SDS011;24356;48.460;11.450;2022-09-01T06:15:46;19.38;;;12.25;;
38591;SDS011;24356;48.460;11.450;2022-09-01T06:18:13;24.05;;;16.48;;
38591;SDS011;24356;48.460;11.450;2022-09-01T06:20:42;19.35;;;14.13;;
38591;SDS011;24356;48.460;11.450;2022-09-01T06:23:09;28.30;;;18.50;;
38591;SDS011;24356;48.460;11.450;2022-09-01T06:25:39;17.15;;;12.43;;
38591;SDS011;24356;48.460;11.450;2022-09-01T06:28:07;11.98;;;8.77;;
38591;SDS011;24356;48.460;11.450;2022-09-01T06:30:37;14.50;;;9.65;;
38591;SDS011;24356;48.460;11.450;2022-09-01T06:33:03;18.77;;;14.27;;
38591;SDS011;24356;48.460;11.450;2022-09-01T06:35:33;21.95;;;15.48;;
38591;SDS011;24356;48.460;11.450;2022-09-01T06:37:59;16.08;;;12.25;;
38591;SDS011;24356;48.460;11.450;2022-09-01T06:40:25;26.48;;;16.83;;
38591;SDS011;24356;48.460;11.450;2022-09-01T06:42:51;19.60;;;12.27;;
38591;SDS011;24356;48.460;11.450;2022-09-01T06:45:18;18.77;;;13.57;;
38591;SDS011;24356;48.460;11.450;2022-09-01T06:47:46;25.02;;;18.15;;
38591;SDS011;24356;48.460;11.450;2022-09-01T06:50:15;22.80;;;15.60;;
38591;SDS011;24356;48.460;11.450;2022-09-01T06:52:44;17.88;;;12.40;;
38591;SDS011;24356;48.460;11.450;2022-09-01T06:55:10;18.23;;;13.63;;
38591;SDS011;24356;48.460;11.450;2022-09-01T06:57:38;14.65;;;11.20;;
38591;SDS011;24356;48.460;11.450;2022-09-01T07:00:06;19.05;;;13.18;;
38591;SDS011;24356;48.460;11.450;2022-09-01T07:02:44;26.00;;;16.02;;
38591;SDS011;24356;48.460;11.450;2022-09-01T07:05:19;13.75;;;9.75;;
38591;SDS011;24356;48.460;11.450;2022-09-01T07:07:50;11.48;;;7.82;;
38591;SDS011;24356;48.460;11.450;2022-09-01T07:10:19;12.13;;;9.63;;
38591;SDS011;24356;48.460;11.450;2022-09-01T07:12:47;12.43;;;9.52;;
38591;SDS011;24356;48.460;11.450;2022-09-01T07:15:14;16.02;;;11.48;;
38591;SDS011;24356;48.460;11.450;2022-09-01T07:17:46;17.17;;;11.52;;
38591;SDS011;24356;48.460;11.450;2022-09-01T07:20:14;19.58;;;13.18;;
38591;SDS011;24356;48.460;11.450;2022-09-01T07:22:41;10.25;;;8.48;;
38591;SDS011;24356;48.460;11.450;2022-09-01T07:25:07;17.27;;;13.35;;
38591;SDS011;24356;48.460;11.450;2022-09-01T07:27:36;17.98;;;13.43;;
38591;SDS011;24356;48.460;11.450;2022-09-01T07:30:03;13.90;;;11.15;;
38591;SDS011;24356;48.460;11.450;2022-09-01T07:32:32;15.85;;;11.32;;
38591;SDS011;24356;48.460;11.450;2022-09-01T07:34:58;15.95;;;10.45;;
38591;SDS011;24356;48.460;11.450;2022-09-01T07:37:24;18.67;;;12.50;;
38591;SDS011;24356;48.460;11.450;2022-09-01T07:39:51;10.98;;;8.82;;
38591;SDS011;24356;48.460;11.450;2022-09-01T07:42:18;12.73;;;9.30;;
38591;SDS011;24356;48.460;11.450;2022-09-01T07:44:44;15.50;;;10.43;;
38591;SDS011;24356;48.460;11.450;2022-09-01T07:47:09;13.15;;;10.48;;
38591;SDS011;24356;48.460;11.450;2022-09-01T07:49:36;14.15;;;9.45;;
38591;SDS011;24356;48.460;11.450;2022-09-01T07:52:05;10.63;;;8.63;;
38591;SDS011;24356;48.460;11.450;2022-09-01T07:54:31;10.13;;;6.43;;
38591;SDS011;24356;48.460;11.450;2022-09-01T07:56:58;12.05;;;9.02;;
38591;SDS011;24356;48.460;11.450;2022-09-01T07:59:25;9.93;;;7.95;;
38591;SDS011;24356;48.460;11.450;2022-09-01T08:01:53;9.93;;;8.52;;
38591;SDS011;24356;48.460;11.450;2022-09-01T08:04:20;11.05;;;7.95;;
38591;SDS011;24356;48.460;11.450;2022-09-01T08:06:47;12.48;;;9.43;;
38591;SDS011;24356;48.460;11.450;2022-09-01T08:09:12;10.73;;;8.82;;
38591;SDS011;24356;48.460;11.450;2022-09-01T08:11:38;11.82;;;8.13;;
38591;SDS011;24356;48.460;11.450;2022-09-01T08:14:04;12.35;;;8.27;;
38591;SDS011;24356;48.460;11.450;2022-09-01T08:16:30;7.18;;;6.00;;
38591;SDS011;24356;48.460;11.450;2022-09-01T08:18:56;9.05;;;7.18;;
38591;SDS011;24356;48.460;11.450;2022-09-01T08:21:23;7.75;;;6.53;;
38591;SDS011;24356;48.460;11.450;2022-09-01T08:23:50;9.98;;;7.15;;
38591;SDS011;24356;48.460;11.450;2022-09-01T08:26:17;9.68;;;7.18;;
38591;SDS011;24356;48.460;11.450;2022-09-01T08:28:45;10.52;;;7.50;;
38591;SDS011;24356;48.460;11.450;2022-09-01T08:31:12;14.70;;;7.78;;
38591;SDS011;24356;48.460;11.450;2022-09-01T08:33:40;7.47;;;6.68;;
38591;SDS011;24356;48.460;11.450;2022-09-01T08:36:07;7.53;;;6.40;;
38591;SDS011;24356;48.460;11.450;2022-09-01T08:38:34;12.05;;;8.18;;
38591;SDS011;24356;48.460;11.450;2022-09-01T08:40:59;11.57;;;8.30;;
38591;SDS011;24356;48.460;11.450;2022-09-01T08:43:41;9.68;;;7.32;;
38591;SDS011;24356;48.460;11.450;2022-09-01T08:46:30;11.38;;;8.45;;
38591;SDS011;24356;48.460;11.450;2022-09-01T08:49:09;8.60;;;6.97;;
38591;SDS011;24356;48.460;11.450;2022-09-01T08:51:48;9.30;;;7.20;;
38591;SDS011;24356;48.460;11.450;2022-09-01T08:57:38;8.27;;;6.88;;
38591;SDS011;24356;48.460;11.450;2022-09-01T09:00:07;10.98;;;7.28;;
38591;SDS011;24356;48.460;11.450;2022-09-01T09:05:06;7.00;;;5.82;;
38591;SDS011;24356;48.460;11.450;2022-09-01T09:10:35;9.07;;;5.78;;
38591;SDS011;24356;48.460;11.450;2022-09-01T09:15:43;6.72;;;5.90;;
38591;SDS011;24356;48.460;11.450;2022-09-01T09:20:53;7.88;;;5.63;;
38591;SDS011;24356;48.460;11.450;2022-09-01T09:23:26;8.50;;;6.28;;
38591;SDS011;24356;48.460;11.450;2022-09-01T09:25:55;6.57;;;5.85;;
38591;SDS011;24356;48.460;11.450;2022-09-01T09:28:21;7.72;;;5.45;;
38591;SDS011;24356;48.460;11.450;2022-09-01T09:30:48;5.97;;;4.88;;
38591;SDS011;24356;48.460;11.450;2022-09-01T09:33:33;6.80;;;5.90;;
38591;SDS011;24356;48.460;11.450;2022-09-01T09:36:14;8.00;;;5.63;;
38591;SDS011;24356;48.460;11.450;2022-09-01T09:38:43;7.53;;;4.90;;
38591;SDS011;24356;48.460;11.450;2022-09-01T09:41:17;7.80;;;4.93;;
38591;SDS011;24356;48.460;11.450;2022-09-01T09:43:54;6.97;;;5.35;;
38591;SDS011;24356;48.460;11.450;2022-09-01T09:51:49;4.72;;;4.22;;
38591;SDS011;24356;48.460;11.450;2022-09-01T09:56:45;6.45;;;3.88;;
38591;SDS011;24356;48.460;11.450;2022-09-01T09:59:17;5.80;;;4.20;;
38591;SDS011;24356;48.460;11.450;2022-09-01T10:01:47;6.43;;;4.38;;
38591;SDS011;24356;48.460;11.450;2022-09-01T10:04:29;5.78;;;4.20;;
38591;SDS011;24356;48.460;11.450;2022-09-01T10:06:56;8.10;;;4.80;;
38591;SDS011;24356;48.460;11.450;2022-09-01T10:11:50;7.30;;;4.55;;
38591;SDS011;24356;48.460;11.450;2022-09-01T10:14:23;4.80;;;4.30;;
38591;SDS011;24356;48.460;11.450;2022-09-01T10:17:14;6.03;;;4.45;;
38591;SDS011;24356;48.460;11.450;2022-09-01T10:19:42;5.00;;;4.47;;
38591;SDS011;24356;48.460;11.450;2022-09-01T10:22:13;7.25;;;4.85;;
38591;SDS011;24356;48.460;11.450;2022-09-01T10:24:39;6.15;;;4.28;;
38591;SDS011;24356;48.460;11.450;2022-09-01T10:27:07;6.38;;;3.95;;
38591;SDS011;24356;48.460;11.450;2022-09-01T10:35:11;8.95;;;3.10;;
38591;SDS011;24356;48.460;11.450;2022-09-01T10:37:43;4.35;;;3.10;;
38591;SDS011;24356;48.460;11.450;2022-09-01T10:40:13;3.35;;;2.80;;
38591;SDS011;24356;48.460;11.450;2022-09-01T10:42:44;4.07;;;2.65;;
38591;SDS011;24356;48.460;11.450;2022-09-01T10:45:15;3.92;;;2.92;;
38591;SDS011;24356;48.460;11.450;2022-09-01T10:47:44;3.58;;;3.25;;
38591;SDS011;24356;48.460;11.450;2022-09-01T10:50:22;5.38;;;2.85;;
38591;SDS011;24356;48.460;11.450;2022-09-01T10:52:57;3.92;;;2.97;;
38591;SDS011;24356;48.460;11.450;2022-09-01T10:55:30;2.80;;;2.47;;
38591;SDS011;24356;48.460;11.450;2022-09-01T10:58:07;3.10;;;2.80;;
38591;SDS011;24356;48.460;11.450;2022-09-01T11:00:43;3.03;;;2.58;;
38591;SDS011;24356;48.460;11.450;2022-09-01T11:11:05;3.00;;;2.70;;
38591;SDS011;24356;48.460;11.450;2022-09-01T11:18:51;2.63;;;2.42;;
38591;SDS011;24356;48.460;11.450;2022-09-01T11:21:28;2.80;;;2.30;;
38591;SDS011;24356;48.460;11.450;2022-09-01T11:27:01;3.17;;;2.47;;
38591;SDS011;24356;48.460;11.450;2022-09-01T11:32:35;4.13;;;2.20;;
38591;SDS011;24356;48.460;11.450;2022-09-01T11:35:02;3.22;;;2.20;;
38591;SDS011;24356;48.460;11.450;2022-09-01T11:37:30;3.10;;;2.47;;
38591;SDS011;24356;48.460;11.450;2022-09-01T11:39:58;4.85;;;2.45;;
38591;SDS011;24356;48.460;11.450;2022-09-01T11:42:35;2.65;;;2.33;;
38591;SDS011;24356;48.460;11.450;2022-09-01T11:47:37;3.95;;;2.20;;
38591;SDS011;24356;48.460;11.450;2022-09-01T11:50:17;4.05;;;2.20;;
38591;SDS011;24356;48.460;11.450;2022-09-01T11:52:55;4.95;;;2.42;;
38591;SDS011;24356;48.460;11.450;2022-09-01T11:55:37;2.83;;;2.03;;
38591;SDS011;24356;48.460;11.450;2022-09-01T11:58:05;4.43;;;2.20;;
38591;SDS011;24356;48.460;11.450;2022-09-01T12:00:35;3.42;;;2.00;;
38591;SDS011;24356;48.460;11.450;2022-09-01T12:03:02;3.78;;;1.95;;
38591;SDS011;24356;48.460;11.450;2022-09-01T12:05:34;2.85;;;2.20;;
38591;SDS011;24356;48.460;11.450;2022-09-01T12:08:11;3.45;;;1.95;;
38591;SDS011;24356;48.460;11.450;2022-09-01T12:10:38;2.20;;;2.00;;
38591;SDS011;24356;48.460;11.450;2022-09-01T12:15:32;2.95;;;2.05;;
38591;SDS011;24356;48.460;11.450;2022-09-01T12:20:42;2.70;;;2.00;;
38591;SDS011;24356;48.460;11.450;2022-09-01T12:25:58;2.42;;;1.75;;
38591;SDS011;24356;48.460;11.450;2022-09-01T12:28:28;3.63;;;1.75;;
38591;SDS011;24356;48.460;11.450;2022-09-01T12:30:56;4.00;;;2.00;;
38591;SDS011;24356;48.460;11.450;2022-09-01T12:33:27;3.22;;;2.15;;
38591;SDS011;24356;48.460;11.450;2022-09-01T12:38:50;2.42;;;1.83;;
38591;SDS011;24356;48.460;11.450;2022-09-01T12:44:25;3.72;;;1.83;;
38591;SDS011;24356;48.460;11.450;2022-09-01T12:47:07;9.10;;;2.00;;
38591;SDS011;24356;48.460;11.450;2022-09-01T12:49:52;2.25;;;2.03;;
38591;SDS011;24356;48.460;11.450;2022-09-01T12:54:43;3.07;;;2.10;;
38591;SDS011;24356;48.460;11.450;2022-09-01T13:00:17;2.33;;;1.90;;
38591;SDS011;24356;48.460;11.450;2022-09-01T13:03:13;1.95;;;1.75;;
38591;SDS011;24356;48.460;11.450;2022-09-01T13:05:42;4.53;;;1.80;;
38591;SDS011;24356;48.460;11.450;2022-09-01T13:08:19;3.78;;;1.80;;
38591;SDS011;24356;48.460;11.450;2022-09-01T13:10:54;1.73;;;1.60;;
38591;SDS011;24356;48.460;11.450;2022-09-01T13:13:23;1.95;;;1.70;;
38591;SDS011;24356;48.460;11.450;2022-09-01T13:15:51;1.98;;;1.70;;
38591;SDS011;24356;48.460;11.450;2022-09-01T13:18:19;2.28;;;1.70;;
38591;SDS011;24356;48.460;11.450;2022-09-01T13:20:47;2.85;;;1.65;;
38591;SDS011;24356;48.460;11.450;2022-09-01T13:23:14;2.50;;;1.60;;
38591;SDS011;24356;48.460;11.450;2022-09-01T13:25:40;2.75;;;1.70;;
38591;SDS011;24356;48.460;11.450;2022-09-01T13:28:10;3.75;;;1.80;;
38591;SDS011;24356;48.460;11.450;2022-09-01T13:30:37;2.88;;;1.88;;
38591;SDS011;24356;48.460;11.450;2022-09-01T13:33:03;5.00;;;2.00;;
38591;SDS011;24356;48.460;11.450;2022-09-01T13:35:29;2.78;;;1.85;;
38591;SDS011;24356;48.460;11.450;2022-09-01T13:37:55;2.38;;;1.77;;
38591;SDS011;24356;48.460;11.450;2022-09-01T13:40:21;3.80;;;1.80;;
38591;SDS011;24356;48.460;11.450;2022-09-01T13:42:50;2.65;;;1.70;;
38591;SDS011;24356;48.460;11.450;2022-09-01T13:45:17;2.25;;;1.80;;
38591;SDS011;24356;48.460;11.450;2022-09-01T13:47:46;2.85;;;1.60;;
38591;SDS011;24356;48.460;11.450;2022-09-01T13:50:14;1.98;;;1.75;;
38591;SDS011;24356;48.460;11.450;2022-09-01T13:52:44;3.25;;;1.50;;
38591;SDS011;24356;48.460;11.450;2022-09-01T13:55:13;2.28;;;1.65;;
38591;SDS011;24356;48.460;11.450;2022-09-01T13:57:40;2.90;;;1.38;;
38591;SDS011;24356;48.460;11.450;2022-09-01T14:00:08;6.05;;;1.67;;
38591;SDS011;24356;48.460;11.450;2022-09-01T14:02:40;1.48;;;1.38;;
38591;SDS011;24356;48.460;11.450;2022-09-01T14:05:12;1.77;;;1.60;;
38591;SDS011;24356;48.460;11.450;2022-09-01T14:07:39;2.00;;;1.50;;
38591;SDS011;24356;48.460;11.450;2022-09-01T14:10:05;2.22;;;1.48;;
38591;SDS011;24356;48.460;11.450;2022-09-01T14:12:31;1.40;;;1.30;;
38591;SDS011;24356;48.460;11.450;2022-09-01T14:14:57;4.90;;;1.73;;
38591;SDS011;24356;48.460;11.450;2022-09-01T14:17:22;2.60;;;1.52;;
38591;SDS011;24356;48.460;11.450;2022-09-01T14:19:51;2.05;;;1.40;;
38591;SDS011;24356;48.460;11.450;2022-09-01T14:22:17;2.30;;;1.50;;
38591;SDS011;24356;48.460;11.450;2022-09-01T14:24:43;2.13;;;1.42;;
38591;SDS011;24356;48.460;11.450;2022-09-01T14:27:08;2.03;;;1.45;;
38591;SDS011;24356;48.460;11.450;2022-09-01T14:29:35;1.77;;;1.30;;
38591;SDS011;24356;48.460;11.450;2022-09-01T14:32:01;5.25;;;1.20;;
38591;SDS011;24356;48.460;11.450;2022-09-01T14:34:27;1.50;;;1.30;;
38591;SDS011;24356;48.460;11.450;2022-09-01T14:36:54;3.00;;;1.30;;
38591;SDS011;24356;48.460;11.450;2022-09-01T14:39:22;2.95;;;1.30;;
38591;SDS011;24356;48.460;11.450;2022-09-01T14:41:48;1.45;;;1.20;;
38591;SDS011;24356;48.460;11.450;2022-09-01T14:44:14;2.00;;;1.30;;
38591;SDS011;24356;48.460;11.450;2022-09-01T14:46:39;1.30;;;1.20;;
38591;SDS011;24356;48.460;11.450;2022-09-01T14:49:05;1.80;;;1.40;;
38591;SDS011;24356;48.460;11.450;2022-09-01T14:51:32;2.67;;;1.30;;
38591;SDS011;24356;48.460;11.450;2022-09-01T14:53:58;2.75;;;1.50;;
38591;SDS011;24356;48.460;11.450;2022-09-01T14:56:25;2.55;;;1.30;;
38591;SDS011;24356;48.460;11.450;2022-09-01T14:58:50;3.88;;;1.23;;
38591;SDS011;24356;48.460;11.450;2022-09-01T15:01:22;2.58;;;1.50;;
38591;SDS011;24356;48.460;11.450;2022-09-01T15:03:49;2.30;;;1.52;;
38591;SDS011;24356;48.460;11.450;2022-09-01T15:06:16;3.47;;;1.27;;
38591;SDS011;24356;48.460;11.450;2022-09-01T15:08:43;2.00;;;1.40;;
38591;SDS011;24356;48.460;11.450;2022-09-01T15:11:09;4.00;;;1.48;;
38591;SDS011;24356;48.460;11.450;2022-09-01T15:13:39;3.17;;;1.30;;
38591;SDS011;24356;48.460;11.450;2022-09-01T15:16:11;1.33;;;1.20;;
38591;SDS011;24356;48.460;11.450;2022-09-01T15:18:39;3.85;;;1.40;;
38591;SDS011;24356;48.460;11.450;2022-09-01T15:21:05;2.08;;;1.30;;
38591;SDS011;24356;48.460;11.450;2022-09-01T15:23:31;2.45;;;1.10;;
38591;SDS011;24356;48.460;11.450;2022-09-01T15:25:56;2.33;;;1.20;;
38591;SDS011;24356;48.460;11.450;2022-09-01T15:28:23;2.53;;;1.30;;
38591;SDS011;24356;48.460;11.450;2022-09-01T15:30:50;2.53;;;1.35;;
38591;SDS011;24356;48.460;11.450;2022-09-01T15:33:16;2.45;;;1.45;;
38591;SDS011;24356;48.460;11.450;2022-09-01T15:35:43;3.67;;;1.60;;
38591;SDS011;24356;48.460;11.450;2022-09-01T15:38:09;2.80;;;1.25;;
38591;SDS011;24356;48.460;11.450;2022-09-01T15:40:38;2.15;;;1.20;;
38591;SDS011;24356;48.460;11.450;2022-09-01T15:43:05;3.22;;;1.40;;
38591;SDS011;24356;48.460;11.450;2022-09-01T15:45:31;6.68;;;1.42;;
38591;SDS011;24356;48.460;11.450;2022-09-01T15:47:57;1.45;;;1.17;;
38591;SDS011;24356;48.460;11.450;2022-09-01T15:50:23;1.30;;;1.20;;
38591;SDS011;24356;48.460;11.450;2022-09-01T15:52:57;3.38;;;1.30;;